Flight Track Log - Related Links

Times and Time Zones

All times are in EDT time to prevent confusion due to time zone crossing. See the AAL942 flight status page for this flight to view local times or setup timezone preferences in your user account.

Time Position Orientation Groundspeed Altitude Reporting Facility
EDT Latitude Longitude Course Direction KTS MPH feet Rate Location/Type
Wed 11:49:34 PM 25.8019 -80.2608 90° East 160 184 1,500  Level Miami Center
Wed 11:50:41 PM 25.7786 -80.1972 112° Southeast 216 249 3,300 2,160 Climbing Miami Center
Wed 11:51:00 PM 25.6654 -80.0823 114° Southeast  Level Estimated
Wed 11:51:39 PM 25.7433 -80.1231 118° Southeast 267 307 6,000  Level Miami Center
Wed 11:52:00 PM 25.6004 -79.9785 104° East  Level Estimated
Wed 11:52:42 PM 25.7256 -80.0375 103° East 280 322 8,800  Level Miami Center
Wed 11:53:00 PM 25.5352 -79.8749 105° East  Level Estimated
Wed 11:53:43 PM 25.7075 -79.9511 103° East 294 338 10,800  Level Miami Center
Wed 11:54:00 PM 25.4700 -79.7713 90° East  Level Estimated
Wed 11:54:41 PM 25.6839 -79.8425 104° East 361 415 12,000  Level Miami Center
Wed 11:55:44 PM 25.6578 -79.7222 104° East 401 461 14,000 2,032 Climbing Miami Center
Wed 11:56:45 PM 25.6300 -79.5956 104° East 419 482 16,200 2,017 Climbing Miami Center
Wed 11:57:43 PM 25.5858 -79.4731 112° Southeast 433 498 18,000 1,736 Climbing Miami Center
Wed 11:58:46 PM 25.5194 -79.3583 123° Southeast 444 511 19,700 1,672 Climbing Miami Center
Wed 11:59:45 PM 25.4500 -79.2411 123° Southeast 453 521 21,400 1,636 Climbing Miami Center
Thu 12:00:47 AM 25.3789 -79.1214 123° Southeast 460 529 23,000 1,700 Climbing Miami Center
Thu 12:01:45 AM 25.3067 -79.0006 123° Southeast 469 540 24,800 1,686 Climbing Miami Center
Thu 12:02:48 AM 25.2283 -78.8692 123° Southeast 479 551 26,400 1,610 Climbing Miami Center
Thu 12:03:48 AM 25.1556 -78.7436 123° Southeast 485 558 28,100 1,750 Climbing Miami Center
Thu 12:04:48 AM 25.0797 -78.6192 124° Southeast 488 562 29,900 1,884 Climbing Miami Center
Thu 12:05:49 AM 24.9969 -78.4822 124° Southeast 490 564 31,900 1,918 Climbing Miami Center
Thu 12:06:50 AM 24.9253 -78.3594 123° Southeast 483 556 33,800 1,736 Climbing Miami Center
Thu 12:07:50 AM 24.8528 -78.2403 124° Southeast 475 547 35,400 1,627 Climbing Miami Center
Thu 12:08:48 AM 24.7814 -78.1200 123° Southeast 472 543 37,000 1,462 Climbing Miami Center
Thu 12:09:49 AM 24.7100 -78.0028 124° Southeast 468 539 38,300 984 Climbing Miami Center
Thu 12:10:50 AM 24.6397 -77.8875 124° Southeast 460 529 39,000 341 Climbing Miami Center
Thu 12:11:52 AM 24.5700 -77.7731 124° Southeast 455 524 39,000  Level Miami Center
Thu 12:12:50 AM 24.4983 -77.6581 124° Southeast 456 525 39,000  Level Miami Center
Thu 12:13:52 AM 24.4197 -77.5303 124° Southeast 457 526 39,000  Level Miami Center
Thu 12:14:54 AM 24.3478 -77.4144 124° Southeast 458 527 39,000  Level Miami Center
Thu 12:15:53 AM 24.2758 -77.2986 124° Southeast 459 528 39,000  Level Miami Center
Thu 12:16:52 AM 24.2047 -77.1828 124° Southeast 459 528 39,000  Level Miami Center
Thu 12:17:56 AM 24.1319 -77.0681 125° Southeast 459 528 39,000  Level Miami Center
Thu 12:18:54 AM 24.0628 -76.9525 123° Southeast 458 527 39,000  Level Miami Center
Thu 12:19:55 AM 23.9958 -76.8453 124° Southeast 457 526 39,000  Level Miami Center
Thu 12:20:57 AM 23.9231 -76.7311 125° Southeast 456 525 39,000  Level Miami Center
Thu 12:21:55 AM 23.8517 -76.6144 124° Southeast 461 531 39,000  Level Miami Center
Thu 12:22:56 AM 23.7794 -76.4975 124° Southeast 462 532 39,000  Level Miami Center
Thu 12:23:56 AM 23.7064 -76.3819 125° Southeast 463 533 39,000  Level Miami Center
Thu 12:24:57 AM 23.6347 -76.2653 124° Southeast 464 534 39,000  Level Miami Center
Thu 12:25:57 AM 23.5625 -76.1486 124° Southeast 464 534 39,000  Level Miami Center
Thu 12:26:58 AM 23.4889 -76.0333 125° Southeast 466 536 39,000  Level Miami Center
Thu 12:27:58 AM 23.4164 -75.9197 125° Southeast 467 537 39,000  Level Miami Center
Thu 12:28:59 AM 23.3272 -75.7828 125° Southeast 477 549 39,000  Level Miami Center
Thu 12:30:00 AM 23.2556 -75.6667 124° Southeast 475 547 39,000  Level Miami Center
Thu 12:31:01 AM 23.1831 -75.5517 124° Southeast 468 539 39,000  Level Miami Center
Thu 12:31:59 AM 23.1094 -75.4358 125° Southeast 467 537 39,000  Level Miami Center
Thu 12:33:01 AM 23.0361 -75.3211 125° Southeast 465 535 39,000  Level Miami Center
Thu 12:34:02 AM 22.9614 -75.2072 125° Southeast 465 535 39,000  Level Miami Center
Thu 12:35:02 AM 22.8878 -75.0931 125° Southeast 464 534 39,000  Level Miami Center
Thu 12:36:02 AM 22.8128 -74.9781 125° Southeast 466 536 39,000  Level Miami Center
Thu 12:37:02 AM 22.7397 -74.8636 125° Southeast 465 535 39,000  Level Miami Center
Thu 12:38:03 AM 22.6650 -74.7517 126° Southeast 463 533 39,000  Level Miami Center
Thu 12:39:05 AM 22.5906 -74.6364 125° Southeast 463 533 39,000  Level Miami Center
Thu 12:40:03 AM 22.5161 -74.5233 125° Southeast 463 533 39,000  Level Miami Center
Thu 12:41:03 AM 22.4417 -74.4089 125° Southeast 463 533 39,000  Level Miami Center
Thu 12:42:04 AM 22.3686 -74.2956 125° Southeast 462 532 39,000  Level Miami Center
Thu 12:43:04 AM 22.2942 -74.1833 126° Southeast 461 531 39,000  Level Miami Center
Thu 12:44:04 AM 22.2217 -74.0708 125° Southeast 460 529 39,000  Level Miami Center
Thu 12:45:07 AM 22.1475 -73.9592 126° Southeast 459 528 39,000  Level Miami Center
Thu 12:46:08 AM 22.0731 -73.8478 126° Southeast 458 527 39,000  Level Miami Center
Thu 12:47:09 AM 21.9931 -73.7244 125° Southeast 457 526 39,000  Level Miami Center
Thu 12:48:09 AM 21.9197 -73.6156 126° Southeast 455 524 39,000  Level Miami Center
Thu 12:49:08 AM 21.8464 -73.5044 125° Southeast 455 524 39,000  Level Miami Center
Thu 12:50:07 AM 21.7711 -73.3944 126° Southeast 455 524 39,000  Level Miami Center
Thu 12:51:09 AM 21.6992 -73.2839 125° Southeast 455 524 39,000  Level Miami Center
Thu 12:52:08 AM 21.6256 -73.1728 125° Southeast 455 524 39,000  Level Miami Center
Thu 12:53:08 AM 21.5519 -73.0611 125° Southeast 455 524 39,000  Level Miami Center
Thu 12:54:09 AM 21.4783 -72.9514 126° Southeast 455 524 39,000  Level Miami Center
Thu 12:55:09 AM 21.4036 -72.8411 126° Southeast 456 525 39,000  Level Miami Center
Thu 12:56:09 AM 21.3297 -72.7303 126° Southeast 455 524 39,000  Level Miami Center
Thu 12:57:10 AM 21.2569 -72.6192 125° Southeast 455 524 39,000  Level Miami Center
Thu 12:58:10 AM 21.1828 -72.5089 126° Southeast 455 524 39,000  Level Miami Center
Thu 12:59:11 AM 21.1086 -72.3981 126° Southeast 456 525 39,000  Level Miami Center
Thu 01:00:11 AM 21.0331 -72.2864 126° Southeast 460 529 39,000  Level Miami Center
Thu 01:01:11 AM 20.9564 -72.1756 127° Southeast 461 531 39,000  Level Miami Center
Thu 01:02:12 AM 20.8794 -72.0622 126° Southeast 466 536 39,000  Level Miami Center
Thu 01:03:12 AM 20.8022 -71.9506 126° Southeast 468 539 39,000  Level Miami Center
Thu 01:04:12 AM 20.7275 -71.8394 126° Southeast 468 539 39,000  Level Miami Center
Thu 01:05:13 AM 20.6511 -71.7269 126° Southeast 467 537 39,000  Level Miami Center
Thu 01:06:13 AM 20.5589 -71.5939 126° Southeast 467 537 39,000  Level Miami Center
Thu 01:07:13 AM 20.4833 -71.4839 126° Southeast 465 535 39,000  Level Miami Center
Thu 01:08:14 AM 20.4042 -71.3750 128° Southeast 465 535 39,000  Level Miami Center
Thu 01:10:00 AM 20.2370 -71.2489 145° Southeast  Level FlightAware Approximate
Thu 01:17:00 AM 19.7558 -70.5965 115° Southeast  Level FlightAware Approximate
Thu 01:18:00 AM 19.6782 -70.5153 146° Southeast  Level FlightAware Approximate
Thu 01:19:00 AM 19.5821 -70.4466 146° Southeast  Level FlightAware Approximate
Thu 01:20:00 AM 19.4855 -70.3787 147° Southeast  Level FlightAware Approximate
Thu 01:21:00 AM 19.3880 -70.3123 147° Southeast  Level FlightAware Approximate
Thu 01:22:00 AM 19.2904 -70.2459 147° Southeast  Level FlightAware Approximate
Thu 01:23:00 AM 19.1929 -70.1797 147° Southeast  Level FlightAware Approximate
Thu 01:24:00 AM 19.0953 -70.1135 148° Southeast  Level FlightAware Approximate
Thu 01:25:00 AM 18.9973 -70.0481 148° Southeast  Level FlightAware Approximate
Thu 01:26:00 AM 18.9000 -69.9816 146° Southeast  Level FlightAware Approximate
Thu 01:27:00 AM 18.8034 -69.9140 146° Southeast  Level FlightAware Approximate
Thu 01:28:00 AM 18.7057 -69.8482 148° Southeast  Level FlightAware Approximate
Thu 01:29:00 AM 18.6086 -69.7814 145° Southeast  Level FlightAware Approximate
Thu 01:30:00 AM 18.5141 -69.7106 145° Southeast  Level FlightAware Approximate
Thu 01:31:00 AM 18.4297 -69.6689 150° Southeast  Level Estimated
Thu 01:32:00 AM 18.4297 -69.6689 150° Southeast  Level Estimated
Thu 01:33:00 AM 18.4297 -69.6689 150° Southeast  Level Estimated
Thu 01:34:00 AM 18.4297 -69.6689 150° Southeast  Level Estimated
Thu 01:35:00 AM 18.4297 -69.6689 150° Southeast  Level Estimated

Login

Don't have an account? Register now (free) for customized features, flight alerts, and more!